sensor_id;sensor_type;location;lat;lon;timestamp;temperature;humidity
8565;DHT22;4320;51.498;6.556;2023-02-27T00:00:17;2.80;1.00
8565;DHT22;4320;51.498;6.556;2023-02-27T00:02:44;2.70;1.00
8565;DHT22;4320;51.498;6.556;2023-02-27T00:05:10;2.70;1.00
8565;DHT22;4320;51.498;6.556;2023-02-27T00:07:37;2.70;1.00
8565;DHT22;4320;51.498;6.556;2023-02-27T00:10:04;2.60;1.00
8565;DHT22;4320;51.498;6.556;2023-02-27T00:12:30;2.70;1.00
8565;DHT22;4320;51.498;6.556;2023-02-27T00:15:08;2.60;1.00
8565;DHT22;4320;51.498;6.556;2023-02-27T00:17:37;2.60;1.00
8565;DHT22;4320;51.498;6.556;2023-02-27T00:20:04;2.60;1.00
8565;DHT22;4320;51.498;6.556;2023-02-27T00:22:30;2.60;1.00
8565;DHT22;4320;51.498;6.556;2023-02-27T00:24:56;2.60;1.00
8565;DHT22;4320;51.498;6.556;2023-02-27T00:27:21;2.60;1.00
8565;DHT22;4320;51.498;6.556;2023-02-27T00:29:47;2.60;1.00
8565;DHT22;4320;51.498;6.556;2023-02-27T00:32:13;2.60;1.00
8565;DHT22;4320;51.498;6.556;2023-02-27T00:34:38;2.50;1.00
8565;DHT22;4320;51.498;6.556;2023-02-27T00:37:04;2.50;1.00
8565;DHT22;4320;51.498;6.556;2023-02-27T00:39:30;2.50;1.00
8565;DHT22;4320;51.498;6.556;2023-02-27T00:41:55;2.50;1.00
8565;DHT22;4320;51.498;6.556;2023-02-27T00:44:21;2.50;1.00
8565;DHT22;4320;51.498;6.556;2023-02-27T00:46:46;2.50;1.00
8565;DHT22;4320;51.498;6.556;2023-02-27T00:49:12;2.50;1.00
8565;DHT22;4320;51.498;6.556;2023-02-27T00:51:38;2.40;1.00
8565;DHT22;4320;51.498;6.556;2023-02-27T00:54:04;2.40;1.00
8565;DHT22;4320;51.498;6.556;2023-02-27T00:56:30;2.40;1.00
8565;DHT22;4320;51.498;6.556;2023-02-27T00:58:55;2.40;1.00
8565;DHT22;4320;51.498;6.556;2023-02-27T01:01:21;2.30;1.00
8565;DHT22;4320;51.498;6.556;2023-02-27T01:03:47;2.30;1.00
8565;DHT22;4320;51.498;6.556;2023-02-27T01:06:12;2.20;1.00
8565;DHT22;4320;51.498;6.556;2023-02-27T01:08:38;2.20;1.00
8565;DHT22;4320;51.498;6.556;2023-02-27T01:11:04;2.20;1.00
8565;DHT22;4320;51.498;6.556;2023-02-27T01:13:29;2.20;1.00
8565;DHT22;4320;51.498;6.556;2023-02-27T01:15:55;2.20;1.00
8565;DHT22;4320;51.498;6.556;2023-02-27T01:18:20;2.20;1.00
8565;DHT22;4320;51.498;6.556;2023-02-27T01:20:51;2.20;1.00
8565;DHT22;4320;51.498;6.556;2023-02-27T01:23:16;2.20;1.00
8565;DHT22;4320;51.498;6.556;2023-02-27T01:25:42;2.20;1.00
8565;DHT22;4320;51.498;6.556;2023-02-27T01:28:08;2.10;1.00
8565;DHT22;4320;51.498;6.556;2023-02-27T01:30:33;2.10;1.00
8565;DHT22;4320;51.498;6.556;2023-02-27T01:32:59;2.10;1.00
8565;DHT22;4320;51.498;6.556;2023-02-27T01:35:24;2.10;1.00
8565;DHT22;4320;51.498;6.556;2023-02-27T01:37:50;2.10;1.00
8565;DHT22;4320;51.498;6.556;2023-02-27T01:40:16;2.20;1.00
8565;DHT22;4320;51.498;6.556;2023-02-27T01:42:41;2.20;1.00
8565;DHT22;4320;51.498;6.556;2023-02-27T01:47:38;2.20;1.00
8565;DHT22;4320;51.498;6.556;2023-02-27T01:50:05;2.20;1.00
8565;DHT22;4320;51.498;6.556;2023-02-27T01:52:31;2.20;1.00
8565;DHT22;4320;51.498;6.556;2023-02-27T01:54:58;2.20;1.00
8565;DHT22;4320;51.498;6.556;2023-02-27T01:57:25;2.20;1.00
8565;DHT22;4320;51.498;6.556;2023-02-27T01:59:51;2.10;1.00
8565;DHT22;4320;51.498;6.556;2023-02-27T02:02:22;2.10;1.00
8565;DHT22;4320;51.498;6.556;2023-02-27T02:04:49;2.10;1.00
8565;DHT22;4320;51.498;6.556;2023-02-27T02:07:17;2.10;1.00
8565;DHT22;4320;51.498;6.556;2023-02-27T02:09:47;2.00;1.00
8565;DHT22;4320;51.498;6.556;2023-02-27T02:12:17;2.00;1.00
8565;DHT22;4320;51.498;6.556;2023-02-27T02:14:43;2.00;1.00
8565;DHT22;4320;51.498;6.556;2023-02-27T02:42:03;1.90;1.00
8565;DHT22;4320;51.498;6.556;2023-02-27T02:49:53;1.90;1.00
8565;DHT22;4320;51.498;6.556;2023-02-27T02:52:26;1.90;1.00
8565;DHT22;4320;51.498;6.556;2023-02-27T02:55:08;1.90;1.00
8565;DHT22;4320;51.498;6.556;2023-02-27T02:57:46;1.90;1.00
8565;DHT22;4320;51.498;6.556;2023-02-27T03:00:22;1.90;1.00
8565;DHT22;4320;51.498;6.556;2023-02-27T03:02:54;1.90;1.00
8565;DHT22;4320;51.498;6.556;2023-02-27T03:05:28;1.90;1.00
8565;DHT22;4320;51.498;6.556;2023-02-27T03:08:08;1.90;1.00
8565;DHT22;4320;51.498;6.556;2023-02-27T03:10:56;1.90;1.00
8565;DHT22;4320;51.498;6.556;2023-02-27T03:13:35;1.90;1.00
8565;DHT22;4320;51.498;6.556;2023-02-27T03:18:55;1.80;1.00
8565;DHT22;4320;51.498;6.556;2023-02-27T03:21:42;1.80;1.00
8565;DHT22;4320;51.498;6.556;2023-02-27T03:24:12;1.80;1.00
8565;DHT22;4320;51.498;6.556;2023-02-27T03:26:41;1.80;1.00
8565;DHT22;4320;51.498;6.556;2023-02-27T03:29:10;1.80;1.00
8565;DHT22;4320;51.498;6.556;2023-02-27T03:31:50;1.70;1.00
8565;DHT22;4320;51.498;6.556;2023-02-27T03:34:33;1.70;1.00
8565;DHT22;4320;51.498;6.556;2023-02-27T03:37:05;1.70;1.00
8565;DHT22;4320;51.498;6.556;2023-02-27T03:42:36;1.70;1.00
8565;DHT22;4320;51.498;6.556;2023-02-27T03:47:32;1.70;1.00
8565;DHT22;4320;51.498;6.556;2023-02-27T03:49:58;1.60;1.00
8565;DHT22;4320;51.498;6.556;2023-02-27T03:52:25;1.60;1.00
8565;DHT22;4320;51.498;6.556;2023-02-27T03:55:02;1.60;1.00
8565;DHT22;4320;51.498;6.556;2023-02-27T03:57:30;1.60;1.00
8565;DHT22;4320;51.498;6.556;2023-02-27T03:59:56;1.60;1.00
8565;DHT22;4320;51.498;6.556;2023-02-27T04:02:22;1.60;1.00
8565;DHT22;4320;51.498;6.556;2023-02-27T04:04:49;1.60;1.00
8565;DHT22;4320;51.498;6.556;2023-02-27T04:10:13;1.60;1.00
8565;DHT22;4320;51.498;6.556;2023-02-27T04:18:37;1.60;1.00
8565;DHT22;4320;51.498;6.556;2023-02-27T04:21:28;1.60;1.00
8565;DHT22;4320;51.498;6.556;2023-02-27T04:26:52;1.50;1.00
8565;DHT22;4320;51.498;6.556;2023-02-27T04:32:25;1.50;1.00
8565;DHT22;4320;51.498;6.556;2023-02-27T04:34:58;1.50;1.00
8565;DHT22;4320;51.498;6.556;2023-02-27T04:37:26;1.50;1.00
8565;DHT22;4320;51.498;6.556;2023-02-27T04:39:57;1.60;1.00
8565;DHT22;4320;51.498;6.556;2023-02-27T04:42:30;1.50;1.00
8565;DHT22;4320;51.498;6.556;2023-02-27T04:45:00;1.50;1.00
8565;DHT22;4320;51.498;6.556;2023-02-27T04:47:31;1.50;1.00
8565;DHT22;4320;51.498;6.556;2023-02-27T04:50:12;1.50;1.00
8565;DHT22;4320;51.498;6.556;2023-02-27T04:52:42;1.50;1.00
8565;DHT22;4320;51.498;6.556;2023-02-27T04:55:28;1.50;1.00
8565;DHT22;4320;51.498;6.556;2023-02-27T04:58:02;1.50;1.00
8565;DHT22;4320;51.498;6.556;2023-02-27T05:00:30;1.50;1.00
8565;DHT22;4320;51.498;6.556;2023-02-27T05:03:03;1.50;1.00
8565;DHT22;4320;51.498;6.556;2023-02-27T05:05:32;1.50;1.00
8565;DHT22;4320;51.498;6.556;2023-02-27T05:10:59;1.50;1.00
8565;DHT22;4320;51.498;6.556;2023-02-27T05:13:33;1.40;1.00
8565;DHT22;4320;51.498;6.556;2023-02-27T05:18:36;1.40;1.00
8565;DHT22;4320;51.498;6.556;2023-02-27T05:21:26;1.40;1.00
8565;DHT22;4320;51.498;6.556;2023-02-27T05:23:56;1.30;1.00
8565;DHT22;4320;51.498;6.556;2023-02-27T05:26:42;1.40;1.00
8565;DHT22;4320;51.498;6.556;2023-02-27T05:31:55;1.40;1.00
8565;DHT22;4320;51.498;6.556;2023-02-27T05:34:27;1.30;1.00
8565;DHT22;4320;51.498;6.556;2023-02-27T05:37:42;1.30;1.00
8565;DHT22;4320;51.498;6.556;2023-02-27T05:39:49;1.30;1.00
8565;DHT22;4320;51.498;6.556;2023-02-27T05:42:22;1.30;1.00
8565;DHT22;4320;51.498;6.556;2023-02-27T05:44:53;1.30;1.00
8565;DHT22;4320;51.498;6.556;2023-02-27T05:47:23;1.30;1.00
8565;DHT22;4320;51.498;6.556;2023-02-27T05:49:57;1.30;1.00
8565;DHT22;4320;51.498;6.556;2023-02-27T05:52:26;1.30;1.00
8565;DHT22;4320;51.498;6.556;2023-02-27T05:54:55;1.30;1.00
8565;DHT22;4320;51.498;6.556;2023-02-27T05:57:32;1.30;1.00
8565;DHT22;4320;51.498;6.556;2023-02-27T06:00:02;1.30;1.00
8565;DHT22;4320;51.498;6.556;2023-02-27T06:02:29;1.30;1.00
8565;DHT22;4320;51.498;6.556;2023-02-27T06:04:55;1.30;1.00
8565;DHT22;4320;51.498;6.556;2023-02-27T06:07:22;1.30;1.00
8565;DHT22;4320;51.498;6.556;2023-02-27T06:09:48;1.30;1.00
8565;DHT22;4320;51.498;6.556;2023-02-27T06:12:14;1.20;1.00
8565;DHT22;4320;51.498;6.556;2023-02-27T06:14:40;1.20;1.00
8565;DHT22;4320;51.498;6.556;2023-02-27T06:17:05;1.20;1.00
8565;DHT22;4320;51.498;6.556;2023-02-27T06:19:31;1.20;1.00
8565;DHT22;4320;51.498;6.556;2023-02-27T06:21:56;1.20;1.00
8565;DHT22;4320;51.498;6.556;2023-02-27T06:24:22;1.20;1.00
8565;DHT22;4320;51.498;6.556;2023-02-27T06:26:48;1.20;1.00
8565;DHT22;4320;51.498;6.556;2023-02-27T06:29:13;1.10;1.00
8565;DHT22;4320;51.498;6.556;2023-02-27T06:31:39;1.10;1.00
8565;DHT22;4320;51.498;6.556;2023-02-27T06:34:04;1.10;1.00
8565;DHT22;4320;51.498;6.556;2023-02-27T06:36:30;1.10;1.00
8565;DHT22;4320;51.498;6.556;2023-02-27T06:38:56;1.10;1.00
8565;DHT22;4320;51.498;6.556;2023-02-27T06:41:22;1.10;1.00
8565;DHT22;4320;51.498;6.556;2023-02-27T06:43:47;1.10;1.00
8565;DHT22;4320;51.498;6.556;2023-02-27T06:46:13;1.10;1.00
8565;DHT22;4320;51.498;6.556;2023-02-27T06:48:39;1.10;1.00
8565;DHT22;4320;51.498;6.556;2023-02-27T06:51:04;1.10;1.00
8565;DHT22;4320;51.498;6.556;2023-02-27T06:53:30;1.20;1.00
8565;DHT22;4320;51.498;6.556;2023-02-27T06:55:55;1.20;1.00
8565;DHT22;4320;51.498;6.556;2023-02-27T06:58:21;1.30;1.00
8565;DHT22;4320;51.498;6.556;2023-02-27T07:00:49;1.20;1.00
8565;DHT22;4320;51.498;6.556;2023-02-27T07:03:15;1.30;1.00
8565;DHT22;4320;51.498;6.556;2023-02-27T07:05:41;1.30;1.00
8565;DHT22;4320;51.498;6.556;2023-02-27T07:08:06;1.30;1.00
8565;DHT22;4320;51.498;6.556;2023-02-27T07:10:32;1.40;1.00
8565;DHT22;4320;51.498;6.556;2023-02-27T07:12:58;1.50;1.00
8565;DHT22;4320;51.498;6.556;2023-02-27T07:15:23;1.60;1.00
8565;DHT22;4320;51.498;6.556;2023-02-27T07:17:49;1.70;1.00
8565;DHT22;4320;51.498;6.556;2023-02-27T07:20:14;1.80;1.00
8565;DHT22;4320;51.498;6.556;2023-02-27T07:22:40;2.00;1.00
8565;DHT22;4320;51.498;6.556;2023-02-27T07:25:07;2.30;1.00
8565;DHT22;4320;51.498;6.556;2023-02-27T07:27:34;2.40;1.00
8565;DHT22;4320;51.498;6.556;2023-02-27T07:30:00;2.70;1.00
8565;DHT22;4320;51.498;6.556;2023-02-27T07:32:26;2.80;1.00
8565;DHT22;4320;51.498;6.556;2023-02-27T07:34:52;3.10;1.00
8565;DHT22;4320;51.498;6.556;2023-02-27T07:37:18;3.30;1.00
8565;DHT22;4320;51.498;6.556;2023-02-27T07:39:43;3.70;1.00
8565;DHT22;4320;51.498;6.556;2023-02-27T07:42:09;4.00;1.00
8565;DHT22;4320;51.498;6.556;2023-02-27T07:44:35;4.40;1.00
8565;DHT22;4320;51.498;6.556;2023-02-27T07:47:01;4.90;1.00
8565;DHT22;4320;51.498;6.556;2023-02-27T07:49:27;5.40;1.00
8565;DHT22;4320;51.498;6.556;2023-02-27T07:51:52;5.90;1.00
8565;DHT22;4320;51.498;6.556;2023-02-27T07:54:18;6.60;1.00
8565;DHT22;4320;51.498;6.556;2023-02-27T07:56:44;7.30;1.00
8565;DHT22;4320;51.498;6.556;2023-02-27T07:59:10;7.90;1.00
8565;DHT22;4320;51.498;6.556;2023-02-27T08:01:35;8.80;1.00
8565;DHT22;4320;51.498;6.556;2023-02-27T08:04:01;9.40;1.00
8565;DHT22;4320;51.498;6.556;2023-02-27T08:06:26;10.00;1.00
8565;DHT22;4320;51.498;6.556;2023-02-27T08:08:53;10.60;1.00
8565;DHT22;4320;51.498;6.556;2023-02-27T08:11:19;10.90;1.00
8565;DHT22;4320;51.498;6.556;2023-02-27T08:13:45;11.40;1.00
8565;DHT22;4320;51.498;6.556;2023-02-27T08:16:11;11.60;1.00
8565;DHT22;4320;51.498;6.556;2023-02-27T08:18:37;12.20;1.00
8565;DHT22;4320;51.498;6.556;2023-02-27T08:21:03;12.70;1.00
8565;DHT22;4320;51.498;6.556;2023-02-27T08:23:32;12.90;1.00
8565;DHT22;4320;51.498;6.556;2023-02-27T08:25:59;13.00;1.00
8565;DHT22;4320;51.498;6.556;2023-02-27T08:28:25;13.10;1.00
8565;DHT22;4320;51.498;6.556;2023-02-27T08:30:52;13.40;1.00
8565;DHT22;4320;51.498;6.556;2023-02-27T08:33:18;13.40;1.00
8565;DHT22;4320;51.498;6.556;2023-02-27T08:35:43;13.80;1.00
8565;DHT22;4320;51.498;6.556;2023-02-27T08:38:09;13.70;1.00
8565;DHT22;4320;51.498;6.556;2023-02-27T08:40:35;14.10;1.00
8565;DHT22;4320;51.498;6.556;2023-02-27T08:43:00;14.50;1.00
8565;DHT22;4320;51.498;6.556;2023-02-27T08:45:26;14.60;1.00
8565;DHT22;4320;51.498;6.556;2023-02-27T08:47:52;14.80;1.00
8565;DHT22;4320;51.498;6.556;2023-02-27T08:50:18;14.10;1.00
8565;DHT22;4320;51.498;6.556;2023-02-27T08:52:43;14.50;1.00
8565;DHT22;4320;51.498;6.556;2023-02-27T08:55:09;14.10;1.00
8565;DHT22;4320;51.498;6.556;2023-02-27T08:57:35;13.20;1.00
8565;DHT22;4320;51.498;6.556;2023-02-27T09:00:01;12.10;1.00
8565;DHT22;4320;51.498;6.556;2023-02-27T09:02:30;10.90;1.00
8565;DHT22;4320;51.498;6.556;2023-02-27T09:04:56;10.10;1.00
8565;DHT22;4320;51.498;6.556;2023-02-27T09:07:22;10.20;1.00
8565;DHT22;4320;51.498;6.556;2023-02-27T09:09:47;11.20;1.00
8565;DHT22;4320;51.498;6.556;2023-02-27T09:12:13;12.20;1.00
8565;DHT22;4320;51.498;6.556;2023-02-27T09:14:39;13.00;1.00
8565;DHT22;4320;51.498;6.556;2023-02-27T09:17:05;13.50;1.00
8565;DHT22;4320;51.498;6.556;2023-02-27T09:19:31;14.10;1.00
8565;DHT22;4320;51.498;6.556;2023-02-27T09:21:57;14.50;1.00
8565;DHT22;4320;51.498;6.556;2023-02-27T09:24:23;14.50;1.00
8565;DHT22;4320;51.498;6.556;2023-02-27T09:26:49;15.20;1.00
8565;DHT22;4320;51.498;6.556;2023-02-27T09:29:15;14.50;1.00
8565;DHT22;4320;51.498;6.556;2023-02-27T09:31:41;13.40;1.00
8565;DHT22;4320;51.498;6.556;2023-02-27T09:34:07;12.80;1.00
8565;DHT22;4320;51.498;6.556;2023-02-27T09:36:32;13.00;1.00
8565;DHT22;4320;51.498;6.556;2023-02-27T09:38:58;13.60;1.00
8565;DHT22;4320;51.498;6.556;2023-02-27T09:41:39;14.40;1.00
8565;DHT22;4320;51.498;6.556;2023-02-27T09:44:25;14.80;1.00
8565;DHT22;4320;51.498;6.556;2023-02-27T09:46:53;14.60;1.00
8565;DHT22;4320;51.498;6.556;2023-02-27T09:49:21;14.80;1.00
8565;DHT22;4320;51.498;6.556;2023-02-27T09:51:50;14.50;1.00
8565;DHT22;4320;51.498;6.556;2023-02-27T09:54:16;14.60;1.00
8565;DHT22;4320;51.498;6.556;2023-02-27T09:56:52;14.80;1.00
8565;DHT22;4320;51.498;6.556;2023-02-27T10:04:44;15.50;1.00
8565;DHT22;4320;51.498;6.556;2023-02-27T10:07:16;15.70;1.00
8565;DHT22;4320;51.498;6.556;2023-02-27T10:19:53;14.20;1.00
8565;DHT22;4320;51.498;6.556;2023-02-27T10:22:24;13.60;1.00
8565;DHT22;4320;51.498;6.556;2023-02-27T10:24:55;13.00;1.00
8565;DHT22;4320;51.498;6.556;2023-02-27T10:27:24;13.00;1.00
8565;DHT22;4320;51.498;6.556;2023-02-27T10:29:50;11.60;1.00
8565;DHT22;4320;51.498;6.556;2023-02-27T10:32:21;10.90;1.00
8565;DHT22;4320;51.498;6.556;2023-02-27T10:35:08;10.50;1.00
8565;DHT22;4320;51.498;6.556;2023-02-27T10:37:36;10.50;1.00
8565;DHT22;4320;51.498;6.556;2023-02-27T10:40:05;10.70;1.00
8565;DHT22;4320;51.498;6.556;2023-02-27T10:42:36;11.10;1.00
8565;DHT22;4320;51.498;6.556;2023-02-27T10:45:10;11.40;1.00
8565;DHT22;4320;51.498;6.556;2023-02-27T10:47:36;11.60;1.00
8565;DHT22;4320;51.498;6.556;2023-02-27T10:50:20;11.30;1.00
8565;DHT22;4320;51.498;6.556;2023-02-27T10:52:51;11.20;1.00
8565;DHT22;4320;51.498;6.556;2023-02-27T10:55:23;11.10;1.00
8565;DHT22;4320;51.498;6.556;2023-02-27T10:57:49;11.00;1.00
8565;DHT22;4320;51.498;6.556;2023-02-27T11:00:25;10.60;1.00
8565;DHT22;4320;51.498;6.556;2023-02-27T11:02:52;10.70;1.00
8565;DHT22;4320;51.498;6.556;2023-02-27T11:05:32;10.80;1.00
8565;DHT22;4320;51.498;6.556;2023-02-27T11:08:12;10.80;1.00
8565;DHT22;4320;51.498;6.556;2023-02-27T11:10:59;10.90;1.00
8565;DHT22;4320;51.498;6.556;2023-02-27T11:13:28;10.60;1.00
8565;DHT22;4320;51.498;6.556;2023-02-27T11:16:17;10.60;1.00
8565;DHT22;4320;51.498;6.556;2023-02-27T11:18:48;10.80;1.00
8565;DHT22;4320;51.498;6.556;2023-02-27T11:26:28;11.60;1.00
8565;DHT22;4320;51.498;6.556;2023-02-27T11:29:14;11.40;1.00
8565;DHT22;4320;51.498;6.556;2023-02-27T11:31:52;11.70;1.00
8565;DHT22;4320;51.498;6.556;2023-02-27T11:34:39;12.00;1.00
8565;DHT22;4320;51.498;6.556;2023-02-27T11:37:35;11.90;1.00
8565;DHT22;4320;51.498;6.556;2023-02-27T11:40:15;11.70;1.00
8565;DHT22;4320;51.498;6.556;2023-02-27T11:42:50;11.20;1.00
8565;DHT22;4320;51.498;6.556;2023-02-27T11:45:24;10.90;1.00
8565;DHT22;4320;51.498;6.556;2023-02-27T11:47:56;11.20;1.00
8565;DHT22;4320;51.498;6.556;2023-02-27T11:50:38;11.20;1.00
8565;DHT22;4320;51.498;6.556;2023-02-27T11:55:48;10.30;1.00
8565;DHT22;4320;51.498;6.556;2023-02-27T11:58:18;10.00;1.00
8565;DHT22;4320;51.498;6.556;2023-02-27T12:00:49;10.00;1.00
8565;DHT22;4320;51.498;6.556;2023-02-27T12:06:21;9.90;1.00
8565;DHT22;4320;51.498;6.556;2023-02-27T12:09:02;10.30;1.00
8565;DHT22;4320;51.498;6.556;2023-02-27T12:11:43;10.30;1.00
8565;DHT22;4320;51.498;6.556;2023-02-27T12:14:17;10.50;1.00
8565;DHT22;4320;51.498;6.556;2023-02-27T12:16:52;10.60;1.00
8565;DHT22;4320;51.498;6.556;2023-02-27T12:19:58;10.70;1.00
8565;DHT22;4320;51.498;6.556;2023-02-27T12:22:25;10.80;1.00
8565;DHT22;4320;51.498;6.556;2023-02-27T12:30:19;10.70;1.00
8565;DHT22;4320;51.498;6.556;2023-02-27T12:33:12;10.70;1.00
8565;DHT22;4320;51.498;6.556;2023-02-27T12:35:41;10.70;1.00
8565;DHT22;4320;51.498;6.556;2023-02-27T12:38:12;10.60;1.00
8565;DHT22;4320;51.498;6.556;2023-02-27T12:40:49;10.60;1.00
8565;DHT22;4320;51.498;6.556;2023-02-27T12:51:48;10.50;1.00
8565;DHT22;4320;51.498;6.556;2023-02-27T13:04:50;9.60;1.00
8565;DHT22;4320;51.498;6.556;2023-02-27T13:07:34;9.50;1.00
8565;DHT22;4320;51.498;6.556;2023-02-27T13:13:48;9.60;1.00
8565;DHT22;4320;51.498;6.556;2023-02-27T13:18:46;9.80;1.00
8565;DHT22;4320;51.498;6.556;2023-02-27T13:21:44;9.70;1.00
8565;DHT22;4320;51.498;6.556;2023-02-27T13:24:26;9.60;1.00
8565;DHT22;4320;51.498;6.556;2023-02-27T13:27:01;9.40;1.00
8565;DHT22;4320;51.498;6.556;2023-02-27T13:29:39;9.20;1.00
8565;DHT22;4320;51.498;6.556;2023-02-27T13:32:18;9.00;1.00
8565;DHT22;4320;51.498;6.556;2023-02-27T13:34:49;9.30;1.00
8565;DHT22;4320;51.498;6.556;2023-02-27T13:37:16;9.20;1.00
8565;DHT22;4320;51.498;6.556;2023-02-27T13:44:58;9.30;1.00
8565;DHT22;4320;51.498;6.556;2023-02-27T13:48:00;9.40;1.00
8565;DHT22;4320;51.498;6.556;2023-02-27T13:52:51;9.80;1.00
8565;DHT22;4320;51.498;6.556;2023-02-27T13:57:56;9.80;1.00
8565;DHT22;4320;51.498;6.556;2023-02-27T14:00:24;9.30;1.00
8565;DHT22;4320;51.498;6.556;2023-02-27T14:02:56;9.20;1.00
8565;DHT22;4320;51.498;6.556;2023-02-27T14:05:29;9.40;1.00
8565;DHT22;4320;51.498;6.556;2023-02-27T14:08:09;9.70;1.00
8565;DHT22;4320;51.498;6.556;2023-02-27T14:10:40;9.70;1.00
8565;DHT22;4320;51.498;6.556;2023-02-27T14:16:49;9.80;1.00
8565;DHT22;4320;51.498;6.556;2023-02-27T14:18:58;9.80;1.00
8565;DHT22;4320;51.498;6.556;2023-02-27T14:21:59;10.00;1.00
8565;DHT22;4320;51.498;6.556;2023-02-27T14:24:34;10.10;1.00
8565;DHT22;4320;51.498;6.556;2023-02-27T14:29:45;9.70;1.00
8565;DHT22;4320;51.498;6.556;2023-02-27T14:32:20;9.30;1.00
8565;DHT22;4320;51.498;6.556;2023-02-27T14:34:47;8.90;1.00
8565;DHT22;4320;51.498;6.556;2023-02-27T14:37:15;8.90;1.00
8565;DHT22;4320;51.498;6.556;2023-02-27T14:39:41;9.00;1.00
8565;DHT22;4320;51.498;6.556;2023-02-27T14:44:52;9.00;1.00
8565;DHT22;4320;51.498;6.556;2023-02-27T14:47:36;8.90;1.00
8565;DHT22;4320;51.498;6.556;2023-02-27T14:50:04;8.70;1.00
8565;DHT22;4320;51.498;6.556;2023-02-27T14:52:39;8.60;1.00
8565;DHT22;4320;51.498;6.556;2023-02-27T14:55:29;8.50;1.00
8565;DHT22;4320;51.498;6.556;2023-02-27T15:03:20;8.50;1.00
8565;DHT22;4320;51.498;6.556;2023-02-27T15:05:48;8.40;1.00
8565;DHT22;4320;51.498;6.556;2023-02-27T15:08:28;8.30;1.00
8565;DHT22;4320;51.498;6.556;2023-02-27T15:10:56;8.20;1.00
8565;DHT22;4320;51.498;6.556;2023-02-27T15:13:24;8.10;1.00
8565;DHT22;4320;51.498;6.556;2023-02-27T15:15:50;8.10;1.00
8565;DHT22;4320;51.498;6.556;2023-02-27T15:18:21;8.00;1.00
8565;DHT22;4320;51.498;6.556;2023-02-27T15:20:56;7.90;1.00
8565;DHT22;4320;51.498;6.556;2023-02-27T15:23:27;7.90;1.00
8565;DHT22;4320;51.498;6.556;2023-02-27T15:25:55;7.90;1.00
8565;DHT22;4320;51.498;6.556;2023-02-27T15:28:29;8.00;1.00
8565;DHT22;4320;51.498;6.556;2023-02-27T15:30:56;8.00;1.00
8565;DHT22;4320;51.498;6.556;2023-02-27T15:33:30;7.90;1.00
8565;DHT22;4320;51.498;6.556;2023-02-27T15:35:57;7.90;1.00
8565;DHT22;4320;51.498;6.556;2023-02-27T15:38:28;7.90;1.00
8565;DHT22;4320;51.498;6.556;2023-02-27T15:40:55;7.90;1.00
8565;DHT22;4320;51.498;6.556;2023-02-27T15:43:22;7.90;1.00
8565;DHT22;4320;51.498;6.556;2023-02-27T15:45:49;7.80;1.00
8565;DHT22;4320;51.498;6.556;2023-02-27T15:48:15;7.80;1.00
8565;DHT22;4320;51.498;6.556;2023-02-27T15:50:47;7.70;1.00
8565;DHT22;4320;51.498;6.556;2023-02-27T15:53:19;7.60;1.00
8565;DHT22;4320;51.498;6.556;2023-02-27T15:55:51;7.60;1.00
8565;DHT22;4320;51.498;6.556;2023-02-27T15:58:41;7.50;1.00
8565;DHT22;4320;51.498;6.556;2023-02-27T16:01:15;7.50;1.00
8565;DHT22;4320;51.498;6.556;2023-02-27T16:03:44;7.50;1.00
8565;DHT22;4320;51.498;6.556;2023-02-27T16:08:46;7.40;1.00
8565;DHT22;4320;51.498;6.556;2023-02-27T16:11:25;7.40;1.00
8565;DHT22;4320;51.498;6.556;2023-02-27T16:13:51;7.50;1.00
8565;DHT22;4320;51.498;6.556;2023-02-27T16:16:22;7.50;1.00
8565;DHT22;4320;51.498;6.556;2023-02-27T16:18:50;7.50;1.00
8565;DHT22;4320;51.498;6.556;2023-02-27T16:21:17;7.40;1.00
8565;DHT22;4320;51.498;6.556;2023-02-27T16:23:44;7.30;1.00
8565;DHT22;4320;51.498;6.556;2023-02-27T16:26:33;7.20;1.00
8565;DHT22;4320;51.498;6.556;2023-02-27T16:29:05;7.20;1.00
8565;DHT22;4320;51.498;6.556;2023-02-27T16:31:50;7.20;1.00
8565;DHT22;4320;51.498;6.556;2023-02-27T16:34:32;7.20;1.00
8565;DHT22;4320;51.498;6.556;2023-02-27T16:37:00;7.30;1.00
8565;DHT22;4320;51.498;6.556;2023-02-27T16:39:27;7.20;1.00
8565;DHT22;4320;51.498;6.556;2023-02-27T16:41:54;7.20;1.00
8565;DHT22;4320;51.498;6.556;2023-02-27T16:44:20;7.20;1.00
8565;DHT22;4320;51.498;6.556;2023-02-27T16:46:48;7.10;1.00
8565;DHT22;4320;51.498;6.556;2023-02-27T16:49:26;7.10;1.00
8565;DHT22;4320;51.498;6.556;2023-02-27T16:51:52;7.10;1.00
8565;DHT22;4320;51.498;6.556;2023-02-27T16:54:18;7.00;1.00
8565;DHT22;4320;51.498;6.556;2023-02-27T16:56:44;7.00;1.00
8565;DHT22;4320;51.498;6.556;2023-02-27T16:59:30;6.90;1.00
8565;DHT22;4320;51.498;6.556;2023-02-27T17:01:58;6.90;1.00
8565;DHT22;4320;51.498;6.556;2023-02-27T17:04:25;6.80;1.00
8565;DHT22;4320;51.498;6.556;2023-02-27T17:06:51;6.80;1.00
8565;DHT22;4320;51.498;6.556;2023-02-27T17:09:17;6.80;1.00
8565;DHT22;4320;51.498;6.556;2023-02-27T17:11:43;6.80;1.00
8565;DHT22;4320;51.498;6.556;2023-02-27T17:14:09;6.70;1.00
8565;DHT22;4320;51.498;6.556;2023-02-27T17:16:34;6.70;1.00
8565;DHT22;4320;51.498;6.556;2023-02-27T17:19:00;6.70;1.00
8565;DHT22;4320;51.498;6.556;2023-02-27T17:21:26;6.60;1.00
8565;DHT22;4320;51.498;6.556;2023-02-27T17:23:52;6.60;1.00
8565;DHT22;4320;51.498;6.556;2023-02-27T17:26:17;6.50;1.00
8565;DHT22;4320;51.498;6.556;2023-02-27T17:28:43;6.50;1.00
8565;DHT22;4320;51.498;6.556;2023-02-27T17:31:11;6.40;1.00
8565;DHT22;4320;51.498;6.556;2023-02-27T17:33:37;6.40;1.00
8565;DHT22;4320;51.498;6.556;2023-02-27T17:36:06;6.30;1.00
8565;DHT22;4320;51.498;6.556;2023-02-27T17:38:33;6.20;1.00
8565;DHT22;4320;51.498;6.556;2023-02-27T17:40:58;6.20;1.00
8565;DHT22;4320;51.498;6.556;2023-02-27T17:43:24;6.20;1.00
8565;DHT22;4320;51.498;6.556;2023-02-27T17:45:51;6.20;1.00
8565;DHT22;4320;51.498;6.556;2023-02-27T17:48:17;6.20;1.00
8565;DHT22;4320;51.498;6.556;2023-02-27T17:50:43;6.20;1.00
8565;DHT22;4320;51.498;6.556;2023-02-27T17:53:09;6.10;1.00
8565;DHT22;4320;51.498;6.556;2023-02-27T17:55:38;6.10;1.00
8565;DHT22;4320;51.498;6.556;2023-02-27T17:58:03;6.00;1.00
8565;DHT22;4320;51.498;6.556;2023-02-27T18:00:29;5.90;1.00
8565;DHT22;4320;51.498;6.556;2023-02-27T18:02:55;5.90;1.00
8565;DHT22;4320;51.498;6.556;2023-02-27T18:05:20;5.90;1.00
8565;DHT22;4320;51.498;6.556;2023-02-27T18:07:46;5.80;1.00
8565;DHT22;4320;51.498;6.556;2023-02-27T18:10:12;5.80;1.00
8565;DHT22;4320;51.498;6.556;2023-02-27T18:12:39;5.80;1.00
8565;DHT22;4320;51.498;6.556;2023-02-27T18:15:05;5.80;1.00
8565;DHT22;4320;51.498;6.556;2023-02-27T18:17:31;5.70;1.00
8565;DHT22;4320;51.498;6.556;2023-02-27T18:19:56;5.70;1.00
8565;DHT22;4320;51.498;6.556;2023-02-27T18:22:22;5.70;1.00
8565;DHT22;4320;51.498;6.556;2023-02-27T18:24:52;5.60;1.00
8565;DHT22;4320;51.498;6.556;2023-02-27T18:27:18;5.60;1.00
8565;DHT22;4320;51.498;6.556;2023-02-27T18:29:44;5.60;1.00
8565;DHT22;4320;51.498;6.556;2023-02-27T18:32:09;5.60;1.00
8565;DHT22;4320;51.498;6.556;2023-02-27T18:34:35;5.60;1.00
8565;DHT22;4320;51.498;6.556;2023-02-27T18:37:00;5.60;1.00
8565;DHT22;4320;51.498;6.556;2023-02-27T18:39:26;5.50;1.00
8565;DHT22;4320;51.498;6.556;2023-02-27T18:41:52;5.50;1.00
8565;DHT22;4320;51.498;6.556;2023-02-27T18:44:17;5.50;1.00
8565;DHT22;4320;51.498;6.556;2023-02-27T18:46:43;5.50;1.00
8565;DHT22;4320;51.498;6.556;2023-02-27T18:49:09;5.40;1.00
8565;DHT22;4320;51.498;6.556;2023-02-27T18:51:35;5.30;1.00
8565;DHT22;4320;51.498;6.556;2023-02-27T18:54:00;5.30;1.00
8565;DHT22;4320;51.498;6.556;2023-02-27T18:56:28;5.30;1.00
8565;DHT22;4320;51.498;6.556;2023-02-27T18:58:57;5.30;1.00
8565;DHT22;4320;51.498;6.556;2023-02-27T19:01:32;5.30;1.00
8565;DHT22;4320;51.498;6.556;2023-02-27T19:03:59;5.30;1.00
8565;DHT22;4320;51.498;6.556;2023-02-27T19:06:39;5.30;1.00
8565;DHT22;4320;51.498;6.556;2023-02-27T19:09:09;5.30;1.00
8565;DHT22;4320;51.498;6.556;2023-02-27T19:11:35;5.30;1.00
8565;DHT22;4320;51.498;6.556;2023-02-27T19:14:03;5.10;1.00